sensor_id;sensor_type;location;lat;lon;timestamp;temperature;humidity
32787;DHT22;19139;49.372;8.580;2023-05-10T00:01:14;23.90;86.40
32787;DHT22;19139;49.372;8.580;2023-05-10T00:03:41;23.90;86.30
32787;DHT22;19139;49.372;8.580;2023-05-10T00:06:07;23.90;86.30
32787;DHT22;19139;49.372;8.580;2023-05-10T00:08:34;23.90;86.40
32787;DHT22;19139;49.372;8.580;2023-05-10T00:11:01;23.90;86.40
32787;DHT22;19139;49.372;8.580;2023-05-10T00:13:32;23.90;86.30
32787;DHT22;19139;49.372;8.580;2023-05-10T00:16:04;23.90;86.30
32787;DHT22;19139;49.372;8.580;2023-05-10T00:18:36;23.90;86.20
32787;DHT22;19139;49.372;8.580;2023-05-10T00:21:03;23.90;86.30
32787;DHT22;19139;49.372;8.580;2023-05-10T00:23:29;23.90;86.30
32787;DHT22;19139;49.372;8.580;2023-05-10T00:25:56;23.90;86.30
32787;DHT22;19139;49.372;8.580;2023-05-10T00:28:22;23.90;86.30
32787;DHT22;19139;49.372;8.580;2023-05-10T00:30:49;23.90;86.20
32787;DHT22;19139;49.372;8.580;2023-05-10T00:33:16;23.90;86.20
32787;DHT22;19139;49.372;8.580;2023-05-10T00:35:42;23.90;87.10
32787;DHT22;19139;49.372;8.580;2023-05-10T00:38:09;23.90;86.30
32787;DHT22;19139;49.372;8.580;2023-05-10T00:40:41;23.90;86.30
32787;DHT22;19139;49.372;8.580;2023-05-10T00:43:12;23.90;86.20
32787;DHT22;19139;49.372;8.580;2023-05-10T00:45:40;23.90;86.20
32787;DHT22;19139;49.372;8.580;2023-05-10T00:48:06;23.90;86.30
32787;DHT22;19139;49.372;8.580;2023-05-10T00:50:38;23.90;86.20
32787;DHT22;19139;49.372;8.580;2023-05-10T00:53:07;23.90;86.20
32787;DHT22;19139;49.372;8.580;2023-05-10T00:55:39;23.90;86.30
32787;DHT22;19139;49.372;8.580;2023-05-10T00:58:11;23.90;86.30
32787;DHT22;19139;49.372;8.580;2023-05-10T01:00:42;23.90;86.20
32787;DHT22;19139;49.372;8.580;2023-05-10T01:03:10;23.90;86.20
32787;DHT22;19139;49.372;8.580;2023-05-10T01:05:38;23.90;86.20
32787;DHT22;19139;49.372;8.580;2023-05-10T01:08:04;23.90;86.20
32787;DHT22;19139;49.372;8.580;2023-05-10T01:10:31;23.90;86.20
32787;DHT22;19139;49.372;8.580;2023-05-10T01:12:59;23.90;86.20
32787;DHT22;19139;49.372;8.580;2023-05-10T01:15:26;23.90;86.20
32787;DHT22;19139;49.372;8.580;2023-05-10T01:17:53;23.90;86.20
32787;DHT22;19139;49.372;8.580;2023-05-10T01:20:20;23.90;86.20
32787;DHT22;19139;49.372;8.580;2023-05-10T01:26:07;23.90;86.20
32787;DHT22;19139;49.372;8.580;2023-05-10T01:31:35;23.90;86.20
32787;DHT22;19139;49.372;8.580;2023-05-10T01:34:13;23.90;86.20
32787;DHT22;19139;49.372;8.580;2023-05-10T01:36:48;23.90;86.20
32787;DHT22;19139;49.372;8.580;2023-05-10T01:39:55;23.90;86.20
32787;DHT22;19139;49.372;8.580;2023-05-10T01:43:08;23.80;86.10
32787;DHT22;19139;49.372;8.580;2023-05-10T01:45:50;23.80;86.10
32787;DHT22;19139;49.372;8.580;2023-05-10T01:48:27;23.90;86.20
32787;DHT22;19139;49.372;8.580;2023-05-10T01:50:55;23.80;86.10
32787;DHT22;19139;49.372;8.580;2023-05-10T01:53:23;23.80;86.10
32787;DHT22;19139;49.372;8.580;2023-05-10T01:55:55;23.80;86.10
32787;DHT22;19139;49.372;8.580;2023-05-10T01:58:30;23.80;86.10
32787;DHT22;19139;49.372;8.580;2023-05-10T02:01:00;23.90;86.10
32787;DHT22;19139;49.372;8.580;2023-05-10T02:03:28;23.80;86.10
32787;DHT22;19139;49.372;8.580;2023-05-10T02:05:57;23.80;86.10
32787;DHT22;19139;49.372;8.580;2023-05-10T02:08:25;23.80;86.10
32787;DHT22;19139;49.372;8.580;2023-05-10T02:10:56;23.80;86.10
32787;DHT22;19139;49.372;8.580;2023-05-10T02:13:27;23.80;86.10
32787;DHT22;19139;49.372;8.580;2023-05-10T02:15:57;23.80;86.00
32787;DHT22;19139;49.372;8.580;2023-05-10T02:18:24;23.90;86.10
32787;DHT22;19139;49.372;8.580;2023-05-10T02:20:52;23.80;86.10
32787;DHT22;19139;49.372;8.580;2023-05-10T02:23:20;23.80;86.10
32787;DHT22;19139;49.372;8.580;2023-05-10T02:25:48;23.80;86.00
32787;DHT22;19139;49.372;8.580;2023-05-10T02:28:17;23.80;86.00
32787;DHT22;19139;49.372;8.580;2023-05-10T02:30:44;23.80;86.00
32787;DHT22;19139;49.372;8.580;2023-05-10T02:33:11;23.80;86.00
32787;DHT22;19139;49.372;8.580;2023-05-10T02:35:43;23.80;85.90
32787;DHT22;19139;49.372;8.580;2023-05-10T02:38:15;23.80;86.00
32787;DHT22;19139;49.372;8.580;2023-05-10T02:40:48;23.80;85.90
32787;DHT22;19139;49.372;8.580;2023-05-10T02:43:22;23.80;86.00
32787;DHT22;19139;49.372;8.580;2023-05-10T02:45:49;23.80;85.90
32787;DHT22;19139;49.372;8.580;2023-05-10T02:48:21;23.80;86.70
32787;DHT22;19139;49.372;8.580;2023-05-10T02:50:50;23.80;85.90
32787;DHT22;19139;49.372;8.580;2023-05-10T02:53:33;23.80;85.90
32787;DHT22;19139;49.372;8.580;2023-05-10T02:56:04;23.80;85.90
32787;DHT22;19139;49.372;8.580;2023-05-10T02:58:38;23.80;86.00
32787;DHT22;19139;49.372;8.580;2023-05-10T03:01:05;23.80;85.90
32787;DHT22;19139;49.372;8.580;2023-05-10T03:03:33;23.80;85.90
32787;DHT22;19139;49.372;8.580;2023-05-10T03:06:05;23.80;85.90
32787;DHT22;19139;49.372;8.580;2023-05-10T03:08:37;23.80;85.90
32787;DHT22;19139;49.372;8.580;2023-05-10T03:17:01;23.80;85.80
32787;DHT22;19139;49.372;8.580;2023-05-10T03:19:34;23.80;85.80
32787;DHT22;19139;49.372;8.580;2023-05-10T03:22:13;23.80;85.80
32787;DHT22;19139;49.372;8.580;2023-05-10T03:24:47;23.80;85.80
32787;DHT22;19139;49.372;8.580;2023-05-10T03:27:21;23.70;85.70
32787;DHT22;19139;49.372;8.580;2023-05-10T03:29:54;23.70;85.70
32787;DHT22;19139;49.372;8.580;2023-05-10T03:32:29;23.80;86.60
32787;DHT22;19139;49.372;8.580;2023-05-10T03:34:56;23.80;85.80
32787;DHT22;19139;49.372;8.580;2023-05-10T03:37:28;23.70;85.70
32787;DHT22;19139;49.372;8.580;2023-05-10T03:39:59;23.70;85.70
32787;DHT22;19139;49.372;8.580;2023-05-10T03:42:31;23.70;85.70
32787;DHT22;19139;49.372;8.580;2023-05-10T03:45:02;23.70;85.70
32787;DHT22;19139;49.372;8.580;2023-05-10T03:47:29;23.70;85.70
32787;DHT22;19139;49.372;8.580;2023-05-10T03:49:56;23.70;85.70
32787;DHT22;19139;49.372;8.580;2023-05-10T03:52:27;23.70;85.70
32787;DHT22;19139;49.372;8.580;2023-05-10T03:54:59;23.70;85.70
32787;DHT22;19139;49.372;8.580;2023-05-10T03:57:25;23.70;85.70
32787;DHT22;19139;49.372;8.580;2023-05-10T03:59:57;23.70;85.70
32787;DHT22;19139;49.372;8.580;2023-05-10T04:02:28;23.70;85.70
32787;DHT22;19139;49.372;8.580;2023-05-10T04:05:01;23.70;85.70
32787;DHT22;19139;49.372;8.580;2023-05-10T04:07:28;23.70;85.70
32787;DHT22;19139;49.372;8.580;2023-05-10T04:09:54;23.70;85.70
32787;DHT22;19139;49.372;8.580;2023-05-10T04:12:26;23.70;85.70
32787;DHT22;19139;49.372;8.580;2023-05-10T04:14:57;23.70;85.70
32787;DHT22;19139;49.372;8.580;2023-05-10T04:17:29;23.70;85.70
32787;DHT22;19139;49.372;8.580;2023-05-10T04:19:55;23.70;85.70
32787;DHT22;19139;49.372;8.580;2023-05-10T04:22:27;23.70;85.70
32787;DHT22;19139;49.372;8.580;2023-05-10T04:24:55;23.70;85.70
32787;DHT22;19139;49.372;8.580;2023-05-10T04:27:21;23.70;85.70
32787;DHT22;19139;49.372;8.580;2023-05-10T04:29:48;23.70;85.70
32787;DHT22;19139;49.372;8.580;2023-05-10T04:32:15;23.70;85.70
32787;DHT22;19139;49.372;8.580;2023-05-10T04:34:43;23.70;86.40
32787;DHT22;19139;49.372;8.580;2023-05-10T04:37:10;23.70;85.70
32787;DHT22;19139;49.372;8.580;2023-05-10T04:39:36;23.70;85.70
32787;DHT22;19139;49.372;8.580;2023-05-10T04:42:05;23.70;85.70
32787;DHT22;19139;49.372;8.580;2023-05-10T04:44:32;23.70;85.70
32787;DHT22;19139;49.372;8.580;2023-05-10T04:46:59;23.70;85.70
32787;DHT22;19139;49.372;8.580;2023-05-10T04:49:26;23.70;85.70
32787;DHT22;19139;49.372;8.580;2023-05-10T04:51:52;23.70;85.60
32787;DHT22;19139;49.372;8.580;2023-05-10T04:54:19;23.70;85.70
32787;DHT22;19139;49.372;8.580;2023-05-10T04:56:51;23.70;85.60
32787;DHT22;19139;49.372;8.580;2023-05-10T04:59:17;23.70;85.60
32787;DHT22;19139;49.372;8.580;2023-05-10T05:01:44;23.70;85.70
32787;DHT22;19139;49.372;8.580;2023-05-10T05:04:10;23.70;85.70
32787;DHT22;19139;49.372;8.580;2023-05-10T05:06:37;23.70;85.60
32787;DHT22;19139;49.372;8.580;2023-05-10T05:09:04;23.70;85.50
32787;DHT22;19139;49.372;8.580;2023-05-10T05:11:30;23.70;85.60
32787;DHT22;19139;49.372;8.580;2023-05-10T05:13:57;23.70;85.60
32787;DHT22;19139;49.372;8.580;2023-05-10T05:16:25;23.70;85.60
32787;DHT22;19139;49.372;8.580;2023-05-10T05:18:57;23.70;85.50
32787;DHT22;19139;49.372;8.580;2023-05-10T05:21:24;23.70;85.50
32787;DHT22;19139;49.372;8.580;2023-05-10T05:23:53;23.70;85.60
32787;DHT22;19139;49.372;8.580;2023-05-10T05:26:19;23.70;85.60
32787;DHT22;19139;49.372;8.580;2023-05-10T05:28:46;23.70;85.60
32787;DHT22;19139;49.372;8.580;2023-05-10T05:31:19;23.70;85.70
32787;DHT22;19139;49.372;8.580;2023-05-10T05:33:46;23.70;86.10
32787;DHT22;19139;49.372;8.580;2023-05-10T05:36:12;23.70;86.50
32787;DHT22;19139;49.372;8.580;2023-05-10T05:38:39;23.70;86.70
32787;DHT22;19139;49.372;8.580;2023-05-10T05:41:05;23.70;87.10
32787;DHT22;19139;49.372;8.580;2023-05-10T05:43:32;23.70;87.10
32787;DHT22;19139;49.372;8.580;2023-05-10T05:46:01;23.70;87.00
32787;DHT22;19139;49.372;8.580;2023-05-10T05:48:33;23.70;87.00
32787;DHT22;19139;49.372;8.580;2023-05-10T05:50:59;23.70;86.90
32787;DHT22;19139;49.372;8.580;2023-05-10T05:53:26;23.70;86.90
32787;DHT22;19139;49.372;8.580;2023-05-10T05:55:54;23.70;86.90
32787;DHT22;19139;49.372;8.580;2023-05-10T05:58:22;23.70;86.80
32787;DHT22;19139;49.372;8.580;2023-05-10T06:00:49;23.70;86.70
32787;DHT22;19139;49.372;8.580;2023-05-10T06:03:16;23.70;86.70
32787;DHT22;19139;49.372;8.580;2023-05-10T06:05:47;23.70;86.70
32787;DHT22;19139;49.372;8.580;2023-05-10T06:08:14;23.70;86.70
32787;DHT22;19139;49.372;8.580;2023-05-10T06:10:46;23.70;86.60
32787;DHT22;19139;49.372;8.580;2023-05-10T06:13:12;23.70;86.50
32787;DHT22;19139;49.372;8.580;2023-05-10T06:15:44;23.70;86.50
32787;DHT22;19139;49.372;8.580;2023-05-10T06:18:10;23.70;86.50
32787;DHT22;19139;49.372;8.580;2023-05-10T06:20:37;23.70;86.50
32787;DHT22;19139;49.372;8.580;2023-05-10T06:23:09;23.70;86.50
32787;DHT22;19139;49.372;8.580;2023-05-10T06:25:40;23.70;86.40
32787;DHT22;19139;49.372;8.580;2023-05-10T06:28:07;23.70;86.40
32787;DHT22;19139;49.372;8.580;2023-05-10T06:30:38;23.70;86.40
32787;DHT22;19139;49.372;8.580;2023-05-10T06:33:05;23.70;86.30
32787;DHT22;19139;49.372;8.580;2023-05-10T06:35:32;23.70;86.30
32787;DHT22;19139;49.372;8.580;2023-05-10T06:38:00;23.70;86.30
32787;DHT22;19139;49.372;8.580;2023-05-10T06:40:26;23.70;86.30
32787;DHT22;19139;49.372;8.580;2023-05-10T06:42:53;23.70;86.30
32787;DHT22;19139;49.372;8.580;2023-05-10T06:45:20;23.70;86.30
32787;DHT22;19139;49.372;8.580;2023-05-10T06:47:47;23.70;86.30
32787;DHT22;19139;49.372;8.580;2023-05-10T06:50:13;23.60;86.20
32787;DHT22;19139;49.372;8.580;2023-05-10T06:52:40;23.70;86.30
32787;DHT22;19139;49.372;8.580;2023-05-10T06:55:07;23.70;86.30
32787;DHT22;19139;49.372;8.580;2023-05-10T06:57:34;23.70;86.20
32787;DHT22;19139;49.372;8.580;2023-05-10T07:00:02;23.70;86.20
32787;DHT22;19139;49.372;8.580;2023-05-10T07:02:30;23.70;86.10
32787;DHT22;19139;49.372;8.580;2023-05-10T07:04:57;23.70;86.10
32787;DHT22;19139;49.372;8.580;2023-05-10T07:07:28;23.70;86.10
32787;DHT22;19139;49.372;8.580;2023-05-10T07:10:00;23.70;86.10
32787;DHT22;19139;49.372;8.580;2023-05-10T07:12:31;23.70;86.10
32787;DHT22;19139;49.372;8.580;2023-05-10T07:15:03;23.70;86.20
32787;DHT22;19139;49.372;8.580;2023-05-10T07:17:30;23.60;86.10
32787;DHT22;19139;49.372;8.580;2023-05-10T07:20:02;23.70;86.10
32787;DHT22;19139;49.372;8.580;2023-05-10T07:22:30;23.60;86.10
32787;DHT22;19139;49.372;8.580;2023-05-10T07:25:01;23.70;86.10
32787;DHT22;19139;49.372;8.580;2023-05-10T07:27:28;23.70;86.10
32787;DHT22;19139;49.372;8.580;2023-05-10T07:29:55;23.70;86.10
32787;DHT22;19139;49.372;8.580;2023-05-10T07:32:22;23.60;86.00
32787;DHT22;19139;49.372;8.580;2023-05-10T07:34:49;23.70;86.10
32787;DHT22;19139;49.372;8.580;2023-05-10T07:37:16;23.70;86.10
32787;DHT22;19139;49.372;8.580;2023-05-10T07:39:47;23.70;86.10
32787;DHT22;19139;49.372;8.580;2023-05-10T07:42:19;23.70;86.00
32787;DHT22;19139;49.372;8.580;2023-05-10T07:44:45;23.70;86.00
32787;DHT22;19139;49.372;8.580;2023-05-10T07:47:12;23.70;86.00
32787;DHT22;19139;49.372;8.580;2023-05-10T07:49:39;23.70;86.00
32787;DHT22;19139;49.372;8.580;2023-05-10T07:52:05;23.70;86.00
32787;DHT22;19139;49.372;8.580;2023-05-10T07:54:32;23.70;85.90
32787;DHT22;19139;49.372;8.580;2023-05-10T07:57:00;23.70;85.90
32787;DHT22;19139;49.372;8.580;2023-05-10T07:59:26;23.70;85.90
32787;DHT22;19139;49.372;8.580;2023-05-10T08:01:54;23.70;85.90
32787;DHT22;19139;49.372;8.580;2023-05-10T08:04:20;23.70;85.90
32787;DHT22;19139;49.372;8.580;2023-05-10T08:06:47;23.70;85.90
32787;DHT22;19139;49.372;8.580;2023-05-10T08:09:14;23.70;85.90
32787;DHT22;19139;49.372;8.580;2023-05-10T08:11:40;23.70;85.90
32787;DHT22;19139;49.372;8.580;2023-05-10T08:14:07;23.70;85.90
32787;DHT22;19139;49.372;8.580;2023-05-10T08:16:38;23.70;86.70
32787;DHT22;19139;49.372;8.580;2023-05-10T08:19:10;23.70;85.90
32787;DHT22;19139;49.372;8.580;2023-05-10T08:21:36;23.70;85.90
32787;DHT22;19139;49.372;8.580;2023-05-10T08:24:03;23.70;86.00
32787;DHT22;19139;49.372;8.580;2023-05-10T08:26:32;23.70;85.90
32787;DHT22;19139;49.372;8.580;2023-05-10T08:29:03;23.70;85.90
32787;DHT22;19139;49.372;8.580;2023-05-10T08:31:35;23.70;85.90
32787;DHT22;19139;49.372;8.580;2023-05-10T08:34:02;23.70;85.90
32787;DHT22;19139;49.372;8.580;2023-05-10T08:36:28;23.70;86.00
32787;DHT22;19139;49.372;8.580;2023-05-10T08:38:55;23.70;86.00
32787;DHT22;19139;49.372;8.580;2023-05-10T08:41:23;23.70;86.10
32787;DHT22;19139;49.372;8.580;2023-05-10T08:43:54;23.70;86.10
32787;DHT22;19139;49.372;8.580;2023-05-10T08:46:22;23.70;86.10
32787;DHT22;19139;49.372;8.580;2023-05-10T08:48:50;23.70;86.10
32787;DHT22;19139;49.372;8.580;2023-05-10T08:51:20;23.70;86.10
32787;DHT22;19139;49.372;8.580;2023-05-10T08:53:48;23.70;86.00
32787;DHT22;19139;49.372;8.580;2023-05-10T08:56:15;23.70;86.10
32787;DHT22;19139;49.372;8.580;2023-05-10T08:58:42;23.70;86.10
32787;DHT22;19139;49.372;8.580;2023-05-10T09:01:09;23.70;86.10
32787;DHT22;19139;49.372;8.580;2023-05-10T09:03:38;23.70;86.10
32787;DHT22;19139;49.372;8.580;2023-05-10T09:06:12;23.70;86.10
32787;DHT22;19139;49.372;8.580;2023-05-10T09:08:41;23.70;86.10
32787;DHT22;19139;49.372;8.580;2023-05-10T09:11:13;23.70;86.10
32787;DHT22;19139;49.372;8.580;2023-05-10T09:13:44;23.70;86.10
32787;DHT22;19139;49.372;8.580;2023-05-10T09:16:11;23.70;86.20
32787;DHT22;19139;49.372;8.580;2023-05-10T09:18:47;23.70;86.20
32787;DHT22;19139;49.372;8.580;2023-05-10T09:21:14;23.70;86.10
32787;DHT22;19139;49.372;8.580;2023-05-10T09:23:45;23.70;86.20
32787;DHT22;19139;49.372;8.580;2023-05-10T09:26:22;23.70;86.10
32787;DHT22;19139;49.372;8.580;2023-05-10T09:28:59;23.70;86.10
32787;DHT22;19139;49.372;8.580;2023-05-10T09:34:18;23.70;86.10
32787;DHT22;19139;49.372;8.580;2023-05-10T09:36:52;23.70;86.20
32787;DHT22;19139;49.372;8.580;2023-05-10T09:39:19;23.70;86.20
32787;DHT22;19139;49.372;8.580;2023-05-10T09:41:47;23.70;86.20
32787;DHT22;19139;49.372;8.580;2023-05-10T09:44:17;23.70;86.20
32787;DHT22;19139;49.372;8.580;2023-05-10T09:46:49;23.70;86.20
32787;DHT22;19139;49.372;8.580;2023-05-10T09:49:16;23.70;86.40
32787;DHT22;19139;49.372;8.580;2023-05-10T09:51:43;23.70;86.20
32787;DHT22;19139;49.372;8.580;2023-05-10T09:54:11;23.70;86.30
32787;DHT22;19139;49.372;8.580;2023-05-10T09:56:38;23.70;86.20
32787;DHT22;19139;49.372;8.580;2023-05-10T09:59:10;23.70;86.20
32787;DHT22;19139;49.372;8.580;2023-05-10T10:01:37;23.70;86.20
32787;DHT22;19139;49.372;8.580;2023-05-10T10:04:05;23.70;86.20
32787;DHT22;19139;49.372;8.580;2023-05-10T10:06:39;23.70;86.20
32787;DHT22;19139;49.372;8.580;2023-05-10T10:09:07;23.70;86.30
32787;DHT22;19139;49.372;8.580;2023-05-10T10:11:38;23.70;86.30
32787;DHT22;19139;49.372;8.580;2023-05-10T10:14:05;23.70;86.30
32787;DHT22;19139;49.372;8.580;2023-05-10T10:16:32;23.70;86.30
32787;DHT22;19139;49.372;8.580;2023-05-10T10:18:59;23.70;86.30
32787;DHT22;19139;49.372;8.580;2023-05-10T10:21:26;23.70;86.30
32787;DHT22;19139;49.372;8.580;2023-05-10T10:23:58;23.70;86.30
32787;DHT22;19139;49.372;8.580;2023-05-10T10:26:30;23.70;86.30
32787;DHT22;19139;49.372;8.580;2023-05-10T10:29:17;23.70;86.20
32787;DHT22;19139;49.372;8.580;2023-05-10T10:32:11;23.70;86.30
32787;DHT22;19139;49.372;8.580;2023-05-10T10:34:43;23.70;86.30
32787;DHT22;19139;49.372;8.580;2023-05-10T10:37:10;23.70;86.20
32787;DHT22;19139;49.372;8.580;2023-05-10T10:39:37;23.70;86.30
32787;DHT22;19139;49.372;8.580;2023-05-10T10:42:04;23.70;86.20
32787;DHT22;19139;49.372;8.580;2023-05-10T10:50:04;23.70;86.10
32787;DHT22;19139;49.372;8.580;2023-05-10T10:52:41;23.80;86.20
32787;DHT22;19139;49.372;8.580;2023-05-10T10:55:15;23.80;86.20
32787;DHT22;19139;49.372;8.580;2023-05-10T10:57:48;23.80;86.20
32787;DHT22;19139;49.372;8.580;2023-05-10T11:02:51;23.80;86.20
32787;DHT22;19139;49.372;8.580;2023-05-10T11:05:37;23.80;86.20
32787;DHT22;19139;49.372;8.580;2023-05-10T11:11:03;23.80;86.20
32787;DHT22;19139;49.372;8.580;2023-05-10T11:13:41;23.80;86.30
32787;DHT22;19139;49.372;8.580;2023-05-10T11:16:13;23.80;86.20
32787;DHT22;19139;49.372;8.580;2023-05-10T11:18:40;23.80;86.20
32787;DHT22;19139;49.372;8.580;2023-05-10T11:21:09;23.80;86.30
32787;DHT22;19139;49.372;8.580;2023-05-10T11:26:08;23.80;86.30
32787;DHT22;19139;49.372;8.580;2023-05-10T11:28:47;23.80;86.30
32787;DHT22;19139;49.372;8.580;2023-05-10T11:31:18;23.80;86.30
32787;DHT22;19139;49.372;8.580;2023-05-10T11:33:51;23.80;86.30
32787;DHT22;19139;49.372;8.580;2023-05-10T11:36:25;23.80;87.10
32787;DHT22;19139;49.372;8.580;2023-05-10T11:38:53;23.80;86.30
32787;DHT22;19139;49.372;8.580;2023-05-10T11:41:20;23.80;86.30
32787;DHT22;19139;49.372;8.580;2023-05-10T11:43:51;23.80;86.30
32787;DHT22;19139;49.372;8.580;2023-05-10T11:46:19;23.80;86.30
32787;DHT22;19139;49.372;8.580;2023-05-10T11:48:49;23.80;86.30
32787;DHT22;19139;49.372;8.580;2023-05-10T11:51:23;23.80;86.20
32787;DHT22;19139;49.372;8.580;2023-05-10T11:53:53;23.80;87.10
32787;DHT22;19139;49.372;8.580;2023-05-10T11:56:20;23.80;86.20
32787;DHT22;19139;49.372;8.580;2023-05-10T11:58:57;23.80;86.20
32787;DHT22;19139;49.372;8.580;2023-05-10T12:01:27;23.80;86.30
32787;DHT22;19139;49.372;8.580;2023-05-10T12:03:55;23.80;86.30
32787;DHT22;19139;49.372;8.580;2023-05-10T12:06:31;23.80;86.30
32787;DHT22;19139;49.372;8.580;2023-05-10T12:08:58;23.80;86.30
32787;DHT22;19139;49.372;8.580;2023-05-10T12:11:26;23.80;86.30
32787;DHT22;19139;49.372;8.580;2023-05-10T12:13:54;23.80;86.30
32787;DHT22;19139;49.372;8.580;2023-05-10T12:16:23;23.80;86.30
32787;DHT22;19139;49.372;8.580;2023-05-10T12:18:52;23.80;86.30
32787;DHT22;19139;49.372;8.580;2023-05-10T12:21:20;23.80;86.30
32787;DHT22;19139;49.372;8.580;2023-05-10T12:23:52;23.80;86.30
32787;DHT22;19139;49.372;8.580;2023-05-10T12:26:23;23.80;86.30
32787;DHT22;19139;49.372;8.580;2023-05-10T12:29:14;23.80;86.30
32787;DHT22;19139;49.372;8.580;2023-05-10T12:31:59;23.80;86.30
32787;DHT22;19139;49.372;8.580;2023-05-10T12:34:29;23.80;86.30
32787;DHT22;19139;49.372;8.580;2023-05-10T12:36:56;23.80;86.30
32787;DHT22;19139;49.372;8.580;2023-05-10T12:39:44;23.80;86.30
32787;DHT22;19139;49.372;8.580;2023-05-10T12:42:12;23.80;86.30
32787;DHT22;19139;49.372;8.580;2023-05-10T12:44:44;23.80;86.30
32787;DHT22;19139;49.372;8.580;2023-05-10T12:47:10;23.80;86.30
32787;DHT22;19139;49.372;8.580;2023-05-10T12:49:37;23.80;86.20
32787;DHT22;19139;49.372;8.580;2023-05-10T12:52:04;23.90;86.20
32787;DHT22;19139;49.372;8.580;2023-05-10T12:54:30;23.80;86.20
32787;DHT22;19139;49.372;8.580;2023-05-10T12:56:57;23.90;86.20
32787;DHT22;19139;49.372;8.580;2023-05-10T12:59:24;23.90;86.20
32787;DHT22;19139;49.372;8.580;2023-05-10T13:01:56;23.90;86.20
32787;DHT22;19139;49.372;8.580;2023-05-10T13:04:23;23.90;86.20
32787;DHT22;19139;49.372;8.580;2023-05-10T13:06:50;23.90;86.20
32787;DHT22;19139;49.372;8.580;2023-05-10T13:09:17;23.90;86.20
32787;DHT22;19139;49.372;8.580;2023-05-10T13:11:48;23.90;86.20
32787;DHT22;19139;49.372;8.580;2023-05-10T13:14:15;23.90;86.20
32787;DHT22;19139;49.372;8.580;2023-05-10T13:16:47;23.90;86.20
32787;DHT22;19139;49.372;8.580;2023-05-10T13:19:15;23.90;86.10
32787;DHT22;19139;49.372;8.580;2023-05-10T13:21:47;23.90;86.20
32787;DHT22;19139;49.372;8.580;2023-05-10T13:24:18;23.90;86.10
32787;DHT22;19139;49.372;8.580;2023-05-10T13:26:45;24.00;86.20
32787;DHT22;19139;49.372;8.580;2023-05-10T13:29:12;24.00;86.20
32787;DHT22;19139;49.372;8.580;2023-05-10T13:31:38;24.00;86.20
32787;DHT22;19139;49.372;8.580;2023-05-10T13:34:05;24.00;86.10
32787;DHT22;19139;49.372;8.580;2023-05-10T13:36:32;24.00;86.20
32787;DHT22;19139;49.372;8.580;2023-05-10T13:38:59;24.00;86.10
32787;DHT22;19139;49.372;8.580;2023-05-10T13:41:32;24.00;86.10
32787;DHT22;19139;49.372;8.580;2023-05-10T13:44:04;24.00;86.10
32787;DHT22;19139;49.372;8.580;2023-05-10T13:46:35;24.00;86.00
32787;DHT22;19139;49.372;8.580;2023-05-10T13:49:08;24.00;86.00
32787;DHT22;19139;49.372;8.580;2023-05-10T13:51:35;24.00;86.00
32787;DHT22;19139;49.372;8.580;2023-05-10T13:54:02;24.00;86.00
32787;DHT22;19139;49.372;8.580;2023-05-10T13:56:29;24.00;86.00
32787;DHT22;19139;49.372;8.580;2023-05-10T13:58:56;24.00;86.10
32787;DHT22;19139;49.372;8.580;2023-05-10T14:01:29;24.00;86.10
32787;DHT22;19139;49.372;8.580;2023-05-10T14:03:56;24.00;86.10
32787;DHT22;19139;49.372;8.580;2023-05-10T14:06:22;24.00;86.80
32787;DHT22;19139;49.372;8.580;2023-05-10T14:08:54;24.00;86.00
32787;DHT22;19139;49.372;8.580;2023-05-10T14:11:20;24.00;85.90
32787;DHT22;19139;49.372;8.580;2023-05-10T14:13:50;24.10;86.10
32787;DHT22;19139;49.372;8.580;2023-05-10T14:16:16;24.00;86.00
32787;DHT22;19139;49.372;8.580;2023-05-10T14:18:43;24.00;85.90
32787;DHT22;19139;49.372;8.580;2023-05-10T14:21:09;24.10;86.00
32787;DHT22;19139;49.372;8.580;2023-05-10T14:23:36;24.10;86.00
32787;DHT22;19139;49.372;8.580;2023-05-10T14:26:03;24.10;86.00
32787;DHT22;19139;49.372;8.580;2023-05-10T14:28:29;24.10;86.00
32787;DHT22;19139;49.372;8.580;2023-05-10T14:30:56;24.10;86.00
32787;DHT22;19139;49.372;8.580;2023-05-10T14:33:28;24.10;85.90
32787;DHT22;19139;49.372;8.580;2023-05-10T14:35:59;24.10;86.00
32787;DHT22;19139;49.372;8.580;2023-05-10T14:38:26;24.10;85.90
32787;DHT22;19139;49.372;8.580;2023-05-10T14:40:52;24.10;86.00
32787;DHT22;19139;49.372;8.580;2023-05-10T14:43:19;24.10;85.80
32787;DHT22;19139;49.372;8.580;2023-05-10T14:45:46;24.10;85.80
32787;DHT22;19139;49.372;8.580;2023-05-10T14:48:13;24.10;86.20
32787;DHT22;19139;49.372;8.580;2023-05-10T14:50:42;24.20;85.90
32787;DHT22;19139;49.372;8.580;2023-05-10T14:53:09;24.20;86.00
32787;DHT22;19139;49.372;8.580;2023-05-10T14:55:36;24.10;85.90
32787;DHT22;19139;49.372;8.580;2023-05-10T14:58:03;24.20;86.00
32787;DHT22;19139;49.372;8.580;2023-05-10T15:00:34;24.10;85.80
32787;DHT22;19139;49.372;8.580;2023-05-10T15:03:01;24.10;85.80
32787;DHT22;19139;49.372;8.580;2023-05-10T15:05:29;24.20;85.80
32787;DHT22;19139;49.372;8.580;2023-05-10T15:07:56;24.10;85.70
32787;DHT22;19139;49.372;8.580;2023-05-10T15:10:22;24.10;85.80
32787;DHT22;19139;49.372;8.580;2023-05-10T15:12:50;24.20;85.90
32787;DHT22;19139;49.372;8.580;2023-05-10T15:15:16;24.10;85.80
32787;DHT22;19139;49.372;8.580;2023-05-10T15:17:43;24.20;85.80
32787;DHT22;19139;49.372;8.580;2023-05-10T15:20:10;24.10;86.20
32787;DHT22;19139;49.372;8.580;2023-05-10T15:22:37;24.10;85.70
32787;DHT22;19139;49.372;8.580;2023-05-10T15:25:05;24.20;85.90
32787;DHT22;19139;49.372;8.580;2023-05-10T15:27:31;24.10;85.70
32787;DHT22;19139;49.372;8.580;2023-05-10T15:29:58;24.20;85.80
32787;DHT22;19139;49.372;8.580;2023-05-10T15:32:30;24.20;85.80
32787;DHT22;19139;49.372;8.580;2023-05-10T15:34:57;24.20;85.80
32787;DHT22;19139;49.372;8.580;2023-05-10T15:37:24;24.20;85.80
32787;DHT22;19139;49.372;8.580;2023-05-10T15:39:51;24.20;85.80
32787;DHT22;19139;49.372;8.580;2023-05-10T15:42:17;24.20;85.80
32787;DHT22;19139;49.372;8.580;2023-05-10T15:44:44;24.20;85.70
32787;DHT22;19139;49.372;8.580;2023-05-10T15:47:11;24.20;85.80
32787;DHT22;19139;49.372;8.580;2023-05-10T15:49:42;24.20;85.80
32787;DHT22;19139;49.372;8.580;2023-05-10T15:52:14;24.20;85.80
32787;DHT22;19139;49.372;8.580;2023-05-10T15:54:41;24.20;85.60
32787;DHT22;19139;49.372;8.580;2023-05-10T15:57:07;24.20;85.80
32787;DHT22;19139;49.372;8.580;2023-05-10T15:59:34;24.20;85.70
32787;DHT22;19139;49.372;8.580;2023-05-10T16:02:01;24.20;85.80
32787;DHT22;19139;49.372;8.580;2023-05-10T16:04:34;24.20;85.60
32787;DHT22;19139;49.372;8.580;2023-05-10T16:07:05;24.20;85.80
32787;DHT22;19139;49.372;8.580;2023-05-10T16:09:32;24.20;85.70
32787;DHT22;19139;49.372;8.580;2023-05-10T16:12:03;24.20;85.70